createdAt,value
2023-10-27T00:00:56.675Z,51.33
2023-10-27T00:03:23.365Z,60.43
2023-10-27T00:05:50.087Z,67.40
2023-10-27T00:08:16.900Z,48.72
2023-10-27T00:10:43.784Z,50.80
2023-10-27T00:13:10.553Z,57.80
2023-10-27T00:15:37.358Z,62.07
2023-10-27T00:18:04.463Z,74.25
2023-10-27T00:20:33.063Z,44.65
2023-10-27T00:22:59.735Z,56.50
2023-10-27T00:25:26.479Z,55.67
2023-10-27T00:27:53.183Z,45.63
2023-10-27T00:30:19.900Z,47.53
2023-10-27T00:32:47.417Z,53.75
2023-10-27T00:35:14.753Z,48.17
2023-10-27T00:37:41.966Z,49.35
2023-10-27T00:40:09.417Z,52.53
2023-10-27T00:42:36.189Z,62.03
2023-10-27T00:45:03.305Z,46.40
2023-10-27T00:47:31.408Z,59.35
2023-10-27T00:49:58.528Z,43.90
2023-10-27T00:52:26.865Z,53.77
2023-10-27T00:54:55.188Z,50.15
2023-10-27T00:57:24.160Z,69.40
2023-10-27T00:59:54.185Z,50.85
2023-10-27T01:02:22.293Z,59.58
2023-10-27T01:04:49.940Z,57.03
2023-10-27T01:07:17.169Z,58.17
2023-10-27T01:09:44.173Z,62.25
2023-10-27T01:12:10.958Z,52.92
2023-10-27T01:14:38.938Z,55.70
2023-10-27T01:17:05.592Z,44.17
2023-10-27T01:19:32.467Z,55.30
2023-10-27T01:21:59.188Z,44.47
2023-10-27T01:24:25.930Z,59.72
2023-10-27T01:26:52.617Z,47.58
2023-10-27T01:29:19.366Z,47.50
2023-10-27T01:31:45.959Z,48.08
2023-10-27T01:34:12.744Z,56.45
2023-10-27T01:36:39.368Z,44.90
2023-10-27T01:39:06.115Z,41.72
2023-10-27T01:41:32.956Z,56.37
2023-10-27T01:43:59.859Z,59.40
2023-10-27T01:46:26.592Z,77.00
2023-10-27T01:48:54.940Z,46.15
2023-10-27T01:51:22.325Z,64.18
2023-10-27T01:53:49.560Z,51.67
2023-10-27T01:56:16.522Z,52.42
2023-10-27T01:58:45.454Z,49.08
2023-10-27T02:01:15.554Z,54.60
2023-10-27T02:03:42.753Z,44.70
2023-10-27T02:06:09.662Z,48.73
2023-10-27T02:08:36.556Z,46.42
2023-10-27T02:11:04.211Z,64.03
2023-10-27T02:13:31.059Z,46.97
2023-10-27T02:15:58.052Z,63.05
2023-10-27T02:18:24.748Z,49.33
2023-10-27T02:20:51.423Z,66.22
2023-10-27T02:23:18.575Z,63.50
2023-10-27T02:25:45.565Z,50.97
2023-10-27T02:28:12.413Z,44.33
2023-10-27T02:30:39.173Z,60.97
2023-10-27T02:33:05.960Z,45.40
2023-10-27T02:35:32.794Z,56.33
2023-10-27T02:37:59.830Z,57.90
2023-10-27T02:40:26.500Z,53.72
2023-10-27T02:42:53.730Z,40.90
2023-10-27T02:45:20.611Z,41.83
2023-10-27T02:47:47.428Z,43.35
2023-10-27T02:50:14.495Z,49.33
2023-10-27T02:52:41.206Z,36.55
2023-10-27T02:55:08.872Z,37.27
2023-10-27T02:57:35.536Z,34.92
2023-10-27T03:00:02.771Z,36.83
2023-10-27T03:02:29.503Z,39.25
2023-10-27T03:04:57.027Z,53.33
2023-10-27T03:07:24.052Z,48.93
2023-10-27T03:09:50.774Z,40.10
2023-10-27T03:12:17.796Z,77.93
2023-10-27T03:14:45.080Z,57.83
2023-10-27T03:17:11.808Z,89.45
2023-10-27T03:19:38.593Z,63.23
2023-10-27T03:22:05.741Z,36.88
2023-10-27T03:24:32.716Z,42.67
2023-10-27T03:26:59.356Z,85.70
2023-10-27T03:29:26.197Z,31.58
2023-10-27T03:31:53.065Z,38.23
2023-10-27T03:34:19.814Z,35.22
2023-10-27T03:36:46.545Z,27.48
2023-10-27T03:39:13.649Z,29.10
2023-10-27T03:41:40.271Z,32.05
2023-10-27T03:44:07.975Z,74.00
2023-10-27T03:46:34.626Z,30.48
2023-10-27T03:49:01.548Z,37.05
2023-10-27T03:51:28.377Z,33.30
2023-10-27T03:53:55.920Z,34.60
2023-10-27T03:56:22.699Z,31.77
2023-10-27T03:58:49.421Z,29.13
2023-10-27T04:01:16.949Z,42.63
2023-10-27T04:03:43.982Z,51.35
2023-10-27T04:06:12.594Z,34.50
2023-10-27T04:08:39.352Z,26.27
2023-10-27T04:11:06.019Z,26.90
2023-10-27T04:13:32.714Z,42.33
2023-10-27T04:15:59.424Z,32.20
2023-10-27T04:18:26.155Z,25.50
2023-10-27T04:20:52.891Z,23.83
2023-10-27T04:23:19.560Z,23.65
2023-10-27T04:25:46.252Z,30.27
2023-10-27T04:28:12.958Z,33.80
2023-10-27T04:30:39.756Z,26.05
2023-10-27T04:33:07.280Z,35.30
2023-10-27T04:35:34.297Z,50.55
2023-10-27T04:38:01.173Z,23.95
2023-10-27T04:40:32.861Z,28.75
2023-10-27T04:43:01.086Z,25.35
2023-10-27T04:45:28.341Z,26.57
2023-10-27T04:47:55.803Z,23.92
2023-10-27T04:50:23.523Z,44.00
2023-10-27T04:52:50.199Z,36.25
2023-10-27T04:55:17.197Z,30.20
2023-10-27T04:57:44.036Z,33.37
2023-10-27T05:00:11.232Z,28.27
2023-10-27T05:02:38.136Z,23.85
2023-10-27T05:05:05.439Z,19.20
2023-10-27T05:07:32.237Z,19.10
2023-10-27T05:09:58.961Z,21.47
2023-10-27T05:12:25.751Z,17.58
2023-10-27T05:14:52.491Z,19.35
2023-10-27T05:17:19.260Z,18.80
2023-10-27T05:19:46.405Z,17.38
2023-10-27T05:22:14.523Z,28.83
2023-10-27T05:24:41.885Z,17.70
2023-10-27T05:27:08.869Z,65.75
2023-10-27T05:29:35.513Z,25.70
2023-10-27T05:32:02.162Z,44.00
2023-10-27T05:34:31.973Z,18.43
2023-10-27T05:36:59.300Z,30.02
2023-10-27T05:39:28.001Z,21.42
2023-10-27T05:41:55.017Z,21.23
2023-10-27T05:44:22.097Z,15.60
2023-10-27T05:46:49.181Z,21.30
2023-10-27T05:49:15.993Z,14.63
2023-10-27T05:51:42.654Z,13.48
2023-10-27T05:54:09.403Z,14.60
2023-10-27T05:56:36.068Z,13.25
2023-10-27T05:59:02.935Z,20.67
2023-10-27T06:01:29.692Z,17.08
2023-10-27T06:03:58.863Z,13.98
2023-10-27T06:06:26.804Z,16.63
2023-10-27T06:08:53.692Z,25.05
2023-10-27T06:11:20.621Z,28.80
2023-10-27T06:13:47.373Z,14.88
2023-10-27T06:16:14.091Z,17.25
2023-10-27T06:18:41.053Z,14.00
2023-10-27T06:21:07.800Z,14.48
2023-10-27T06:23:34.501Z,11.53
2023-10-27T06:26:01.428Z,25.45
2023-10-27T06:28:28.150Z,12.75
2023-10-27T06:30:54.912Z,17.20
2023-10-27T06:33:23.285Z,14.90
2023-10-27T06:35:50.243Z,12.87
2023-10-27T06:38:16.923Z,30.13
2023-10-27T06:40:43.654Z,29.50
2023-10-27T06:43:10.438Z,26.27
2023-10-27T06:45:37.131Z,14.30
2023-10-27T06:48:04.116Z,19.27
2023-10-27T06:50:31.032Z,11.65
2023-10-27T06:52:57.745Z,12.43
2023-10-27T06:55:24.510Z,11.60
2023-10-27T06:57:51.278Z,16.35
2023-10-27T07:00:18.179Z,16.33
2023-10-27T07:02:55.787Z,18.67
2023-10-27T07:05:24.805Z,13.60
2023-10-27T07:07:52.331Z,13.35
2023-10-27T07:10:19.095Z,17.60
2023-10-27T07:12:45.782Z,15.60
2023-10-27T07:15:14.205Z,13.32
2023-10-27T07:17:42.364Z,16.80
2023-10-27T07:20:09.839Z,13.50
2023-10-27T07:22:37.814Z,14.00
2023-10-27T07:25:05.855Z,25.23
2023-10-27T07:27:34.323Z,12.73
2023-10-27T07:30:01.193Z,9.90
2023-10-27T07:32:27.945Z,10.10
2023-10-27T07:34:54.789Z,9.98
2023-10-27T07:37:24.437Z,7.50
2023-10-27T07:39:51.173Z,12.07
2023-10-27T07:42:17.852Z,8.70
2023-10-27T07:44:44.780Z,9.43
2023-10-27T07:47:11.937Z,8.95
2023-10-27T07:49:38.635Z,9.50
2023-10-27T07:52:06.973Z,10.30
2023-10-27T07:54:33.870Z,9.63
2023-10-27T07:57:00.740Z,7.78
2023-10-27T07:59:29.065Z,8.18
2023-10-27T08:02:00.696Z,7.73
2023-10-27T08:04:28.138Z,9.20
2023-10-27T08:06:55.052Z,8.65
2023-10-27T08:09:21.796Z,11.35
2023-10-27T08:11:51.944Z,9.05
2023-10-27T08:14:18.770Z,7.77
2023-10-27T08:16:46.179Z,8.25
2023-10-27T08:19:14.319Z,7.88
2023-10-27T08:21:47.589Z,8.73
2023-10-27T08:24:14.294Z,12.13
2023-10-27T08:26:41.148Z,9.13
2023-10-27T08:29:07.818Z,7.15
2023-10-27T08:31:34.950Z,11.43
2023-10-27T08:34:02.160Z,9.30
2023-10-27T08:36:28.846Z,10.10
2023-10-27T08:38:56.089Z,9.40
2023-10-27T08:41:26.368Z,8.27
2023-10-27T08:43:57.083Z,8.40
2023-10-27T08:46:25.930Z,8.63
2023-10-27T08:48:52.779Z,8.15
2023-10-27T08:51:21.900Z,10.77
2023-10-27T08:53:48.948Z,6.80
2023-10-27T08:56:16.214Z,7.20
2023-10-27T08:58:52.685Z,6.28
2023-10-27T09:01:19.569Z,7.95
2023-10-27T09:04:15.049Z,9.27
2023-10-27T09:06:43.016Z,8.75
2023-10-27T09:09:12.994Z,7.70
2023-10-27T09:11:44.870Z,7.60
2023-10-27T09:14:23.893Z,11.77
2023-10-27T09:16:52.208Z,7.23
2023-10-27T09:19:20.233Z,7.05
2023-10-27T09:21:46.906Z,7.75
2023-10-27T09:24:28.539Z,7.80
2023-10-27T09:26:57.616Z,7.60
2023-10-27T09:29:24.971Z,6.47
2023-10-27T09:31:52.550Z,8.68
2023-10-27T09:34:27.380Z,8.20
2023-10-27T09:36:59.421Z,7.03
2023-10-27T09:39:27.238Z,8.45
2023-10-27T09:42:05.539Z,9.50
2023-10-27T09:44:46.386Z,8.13
2023-10-27T09:47:19.864Z,7.10
2023-10-27T09:49:52.550Z,8.75
2023-10-27T09:52:22.060Z,5.95
2023-10-27T09:54:57.622Z,7.07
2023-10-27T09:57:29.880Z,8.95
2023-10-27T09:59:59.149Z,12.05
2023-10-27T10:02:26.546Z,6.90
2023-10-27T10:04:53.309Z,14.07
2023-10-27T10:07:29.912Z,6.77
2023-10-27T10:09:57.078Z,6.85
2023-10-27T10:12:23.735Z,9.90
2023-10-27T10:14:51.159Z,6.30
2023-10-27T10:17:41.454Z,9.32
2023-10-27T10:20:10.384Z,6.37
2023-10-27T10:22:45.672Z,6.57
2023-10-27T10:25:24.538Z,6.18
2023-10-27T10:28:12.684Z,5.68
2023-10-27T10:30:44.520Z,5.80
2023-10-27T10:33:20.698Z,5.47
2023-10-27T10:35:48.203Z,7.82
2023-10-27T10:38:24.042Z,5.18
2023-10-27T10:40:53.152Z,5.43
2023-10-27T10:43:37.745Z,6.30
2023-10-27T10:46:13.674Z,5.83
2023-10-27T10:48:45.756Z,5.57
2023-10-27T10:51:33.450Z,5.95
2023-10-27T10:54:00.075Z,6.68
2023-10-27T10:56:26.749Z,5.95
2023-10-27T10:58:54.109Z,5.17
2023-10-27T11:01:22.970Z,5.50
2023-10-27T11:03:52.302Z,7.03
2023-10-27T11:06:23.862Z,4.95
2023-10-27T11:08:50.932Z,5.38
2023-10-27T11:11:18.826Z,5.80
2023-10-27T11:13:51.173Z,4.38
2023-10-27T11:16:23.451Z,7.35
2023-10-27T11:18:53.827Z,5.65
2023-10-27T11:21:23.768Z,6.30
2023-10-27T11:23:52.055Z,4.30
2023-10-27T11:26:21.324Z,3.90
2023-10-27T11:28:48.626Z,5.38
2023-10-27T11:31:24.617Z,4.43
2023-10-27T11:34:04.754Z,6.53
2023-10-27T11:36:36.600Z,6.83
2023-10-27T11:39:20.482Z,6.13
2023-10-27T11:42:00.479Z,4.95
2023-10-27T11:44:28.202Z,6.55
2023-10-27T11:47:05.819Z,5.85
2023-10-27T11:49:33.467Z,5.63
2023-10-27T11:52:00.510Z,7.68
2023-10-27T11:54:28.572Z,9.52
2023-10-27T11:56:55.527Z,13.82
2023-10-27T11:59:26.998Z,5.55
2023-10-27T12:01:54.567Z,6.47
2023-10-27T12:04:21.619Z,5.55
2023-10-27T12:06:48.741Z,10.35
2023-10-27T12:09:15.506Z,7.28
2023-10-27T12:11:45.009Z,6.78
2023-10-27T12:14:12.146Z,7.33
2023-10-27T12:16:39.176Z,4.95
2023-10-27T12:19:05.913Z,5.68
2023-10-27T12:21:34.316Z,8.45
2023-10-27T12:24:01.316Z,6.95
2023-10-27T12:26:28.876Z,10.00
2023-10-27T12:28:55.694Z,5.78
2023-10-27T12:31:22.491Z,6.57
2023-10-27T12:33:52.662Z,11.15
2023-10-27T12:36:19.639Z,6.70
2023-10-27T12:38:46.418Z,5.20
2023-10-27T12:41:14.536Z,6.15
2023-10-27T12:43:41.536Z,6.03
2023-10-27T12:46:08.378Z,7.32
2023-10-27T12:48:35.123Z,6.75
2023-10-27T12:51:02.822Z,7.03
2023-10-27T12:53:29.632Z,5.97
2023-10-27T12:55:57.107Z,5.10
2023-10-27T12:58:24.371Z,5.47
2023-10-27T13:00:52.428Z,6.82
2023-10-27T13:03:19.689Z,5.67
2023-10-27T13:05:46.545Z,4.60
2023-10-27T13:08:13.801Z,5.90
2023-10-27T13:10:40.750Z,4.13
2023-10-27T13:13:07.904Z,4.60
2023-10-27T13:15:35.269Z,6.70
2023-10-27T13:18:03.919Z,6.00
2023-10-27T13:20:31.869Z,7.20
2023-10-27T13:22:58.653Z,6.80
2023-10-27T13:25:25.939Z,4.68
2023-10-27T13:27:53.844Z,4.17
2023-10-27T13:30:21.738Z,30.70
2023-10-27T13:32:51.013Z,10.98
2023-10-27T13:35:18.350Z,5.90
2023-10-27T13:37:45.104Z,8.32
2023-10-27T13:40:15.190Z,3.83
2023-10-27T13:42:41.989Z,5.95
2023-10-27T13:45:09.068Z,5.90
2023-10-27T13:47:35.725Z,5.40
2023-10-27T13:50:04.807Z,4.75
2023-10-27T13:52:31.876Z,3.13
2023-10-27T13:54:59.459Z,3.63
2023-10-27T13:57:26.878Z,7.35
2023-10-27T13:59:53.560Z,7.25
2023-10-27T14:02:21.371Z,6.45
2023-10-27T14:04:48.737Z,14.37
2023-10-27T14:07:15.967Z,5.82
2023-10-27T14:09:42.693Z,6.63
2023-10-27T14:12:10.049Z,5.97
2023-10-27T14:14:36.728Z,7.07
2023-10-27T14:17:03.929Z,4.97
2023-10-27T14:19:30.953Z,4.95
2023-10-27T14:21:58.084Z,6.45
2023-10-27T14:24:25.059Z,5.47
2023-10-27T14:26:53.118Z,5.63
2023-10-27T14:29:22.367Z,7.40
2023-10-27T14:31:49.247Z,6.15
2023-10-27T14:34:16.094Z,5.72
2023-10-27T14:36:44.260Z,5.32
2023-10-27T14:39:14.525Z,5.28
2023-10-27T14:41:42.038Z,7.97
2023-10-27T14:44:08.761Z,5.18
2023-10-27T14:46:35.528Z,6.85
2023-10-27T14:49:02.673Z,6.53
2023-10-27T14:51:29.522Z,4.95
2023-10-27T14:53:56.390Z,10.77
2023-10-27T14:56:23.170Z,4.88
2023-10-27T14:58:53.931Z,6.35
2023-10-27T15:03:48.632Z,7.13
2023-10-27T15:06:15.585Z,8.50
2023-10-27T15:08:42.205Z,6.50
2023-10-27T15:11:09.046Z,6.80
2023-10-27T15:13:36.107Z,9.05
2023-10-27T15:16:15.260Z,5.68
2023-10-27T15:18:43.027Z,7.23
2023-10-27T15:21:11.571Z,8.57
2023-10-27T15:23:38.640Z,9.40
2023-10-27T15:26:12.661Z,5.50
2023-10-27T15:28:39.621Z,8.10
2023-10-27T15:31:08.323Z,7.60
2023-10-27T15:33:36.387Z,6.97
2023-10-27T15:36:11.161Z,9.32
2023-10-27T15:38:43.980Z,7.82
2023-10-27T15:41:31.081Z,11.30
2023-10-27T15:44:00.511Z,8.60
2023-10-27T15:46:30.094Z,8.60
2023-10-27T15:48:56.739Z,10.07
2023-10-27T15:51:23.343Z,8.52
2023-10-27T15:53:51.418Z,6.75
2023-10-27T15:56:21.544Z,7.80
2023-10-27T15:58:48.328Z,6.50
2023-10-27T16:01:15.055Z,6.88
2023-10-27T16:03:41.732Z,12.15
2023-10-27T16:06:08.481Z,6.63
2023-10-27T16:08:35.251Z,6.93
2023-10-27T16:11:03.488Z,8.75
2023-10-27T16:13:30.305Z,5.15
2023-10-27T16:15:57.041Z,7.32
2023-10-27T16:18:25.207Z,5.78
2023-10-27T16:20:52.221Z,4.93
2023-10-27T16:23:18.869Z,6.10
2023-10-27T16:25:45.979Z,5.07
2023-10-27T16:28:12.665Z,4.55
2023-10-27T16:30:39.343Z,3.80
2023-10-27T16:33:07.016Z,6.40
2023-10-27T16:35:37.141Z,10.32
2023-10-27T16:38:03.922Z,4.60
2023-10-27T16:40:31.655Z,4.90
2023-10-27T16:42:58.367Z,6.82
2023-10-27T16:45:26.451Z,8.73
2023-10-27T16:47:53.232Z,5.93
2023-10-27T16:50:21.627Z,7.65
2023-10-27T16:52:48.549Z,4.95
2023-10-27T16:55:15.484Z,7.70
2023-10-27T16:57:42.411Z,8.50
2023-10-27T17:00:10.465Z,9.40
2023-10-27T17:02:37.253Z,6.40
2023-10-27T17:05:05.724Z,6.35
2023-10-27T17:07:32.432Z,6.50
2023-10-27T17:10:04.635Z,7.63
2023-10-27T17:12:34.144Z,8.55
2023-10-27T17:15:00.868Z,9.07
2023-10-27T17:17:27.759Z,7.40
2023-10-27T17:20:01.698Z,11.52
2023-10-27T17:22:40.161Z,8.23
2023-10-27T17:25:08.999Z,10.27
2023-10-27T17:27:35.983Z,10.55
2023-10-27T17:30:04.713Z,7.88
2023-10-27T17:32:31.516Z,10.18
2023-10-27T17:34:58.492Z,8.67
2023-10-27T17:37:25.335Z,8.85
2023-10-27T17:39:52.164Z,10.43
2023-10-27T17:42:18.997Z,11.23
2023-10-27T17:44:46.213Z,9.75
2023-10-27T17:47:14.322Z,9.10
2023-10-27T17:49:41.806Z,13.30
2023-10-27T17:52:09.018Z,11.20
2023-10-27T17:54:36.279Z,9.95
2023-10-27T17:57:04.218Z,10.88
2023-10-27T17:59:32.401Z,10.17
2023-10-27T18:01:59.101Z,11.85
2023-10-27T18:04:26.807Z,14.45
2023-10-27T18:06:55.764Z,11.23
2023-10-27T18:09:22.565Z,9.82
2023-10-27T18:11:49.897Z,10.67
2023-10-27T18:14:18.345Z,9.93
2023-10-27T18:16:47.527Z,9.48
2023-10-27T18:19:15.768Z,10.23
2023-10-27T18:21:42.961Z,13.80
2023-10-27T18:24:11.830Z,13.43
2023-10-27T18:26:38.859Z,10.73
2023-10-27T18:29:05.722Z,10.73
2023-10-27T18:31:32.442Z,13.05
2023-10-27T18:33:59.081Z,11.05
2023-10-27T18:36:25.823Z,12.37
2023-10-27T18:38:52.554Z,12.18
2023-10-27T18:41:19.271Z,11.43
2023-10-27T18:43:48.242Z,13.32
2023-10-27T18:46:15.382Z,12.52
2023-10-27T18:48:42.558Z,12.67
2023-10-27T18:51:09.688Z,11.63
2023-10-27T18:53:37.787Z,15.32
2023-10-27T18:56:09.808Z,11.65
2023-10-27T18:58:37.974Z,12.27
2023-10-27T19:01:09.106Z,17.40
2023-10-27T19:03:48.628Z,15.93
2023-10-27T19:06:16.962Z,12.13
2023-10-27T19:08:45.048Z,17.83
2023-10-27T19:11:13.144Z,12.95
2023-10-27T19:13:41.360Z,19.97
2023-10-27T19:16:09.860Z,14.95
2023-10-27T19:18:38.565Z,22.42
2023-10-27T19:21:11.658Z,13.10
2023-10-27T19:23:39.249Z,18.55
2023-10-27T19:26:18.867Z,16.07
2023-10-27T19:28:50.034Z,17.02
2023-10-27T19:31:18.965Z,14.25
2023-10-27T19:33:49.150Z,14.55
2023-10-27T19:36:16.570Z,15.20
2023-10-27T19:38:43.916Z,14.90
2023-10-27T19:41:12.639Z,15.60
2023-10-27T19:43:39.720Z,14.52
2023-10-27T19:46:07.846Z,15.75
2023-10-27T19:48:36.430Z,20.35
2023-10-27T19:51:04.400Z,14.90
2023-10-27T19:53:31.051Z,20.15
2023-10-27T19:55:58.453Z,15.75
2023-10-27T19:58:25.170Z,16.33
2023-10-27T20:00:52.778Z,14.93
2023-10-27T20:03:21.596Z,16.23
2023-10-27T20:05:51.993Z,23.65
2023-10-27T20:08:19.374Z,18.33
2023-10-27T20:10:49.860Z,16.15
2023-10-27T20:13:17.125Z,16.90
2023-10-27T20:15:45.793Z,17.47
2023-10-27T20:18:15.772Z,18.77
2023-10-27T20:20:45.751Z,25.08
2023-10-27T20:23:13.939Z,26.17
2023-10-27T20:25:41.078Z,20.90
2023-10-27T20:28:08.831Z,20.17
2023-10-27T20:30:36.672Z,19.48
2023-10-27T20:33:03.500Z,18.67
2023-10-27T20:35:30.279Z,21.92
2023-10-27T20:37:57.210Z,22.83
2023-10-27T20:40:25.168Z,18.63
2023-10-27T20:42:52.217Z,20.23
2023-10-27T20:45:19.619Z,21.17
2023-10-27T20:47:47.878Z,17.02
2023-10-27T20:50:15.528Z,23.92
2023-10-27T20:52:43.881Z,16.40
2023-10-27T20:55:10.830Z,18.88
2023-10-27T20:57:38.255Z,17.30
2023-10-27T21:00:05.337Z,18.02
2023-10-27T21:02:32.179Z,16.20
2023-10-27T21:04:59.264Z,19.87
2023-10-27T21:07:26.539Z,18.63
2023-10-27T21:09:53.763Z,12.77
2023-10-27T21:12:20.489Z,14.15
2023-10-27T21:14:47.539Z,18.00
2023-10-27T21:17:15.114Z,20.67
2023-10-27T21:19:41.914Z,19.65
2023-10-27T21:22:08.630Z,22.15
2023-10-27T21:24:35.793Z,21.25
2023-10-27T21:27:03.891Z,20.98
2023-10-27T21:29:30.594Z,24.63
2023-10-27T21:31:57.924Z,16.48
2023-10-27T21:34:24.681Z,17.00
2023-10-27T21:36:51.936Z,17.75
2023-10-27T21:39:18.641Z,22.20
2023-10-27T21:41:45.339Z,15.97
2023-10-27T21:44:12.019Z,19.10
2023-10-27T21:46:38.768Z,20.80
2023-10-27T21:49:05.464Z,20.95
2023-10-27T21:51:32.141Z,18.00
2023-10-27T21:53:58.768Z,20.57
2023-10-27T21:56:25.586Z,18.48
2023-10-27T21:58:52.326Z,20.67
2023-10-27T22:01:19.089Z,16.77
2023-10-27T22:03:45.819Z,18.45
2023-10-27T22:06:12.581Z,20.00
2023-10-27T22:08:42.412Z,18.20
2023-10-27T22:11:10.789Z,19.75
2023-10-27T22:13:39.492Z,17.67
2023-10-27T22:16:09.108Z,20.23
2023-10-27T22:18:36.301Z,21.30
2023-10-27T22:21:13.502Z,21.02
2023-10-27T22:23:41.396Z,27.33
2023-10-27T22:26:09.779Z,20.40
2023-10-27T22:28:36.708Z,23.27
2023-10-27T22:31:05.150Z,14.80
2023-10-27T22:33:31.903Z,17.85
2023-10-27T22:35:58.939Z,17.42
2023-10-27T22:38:26.282Z,18.00
2023-10-27T22:40:53.039Z,16.60
2023-10-27T22:43:19.678Z,14.90
2023-10-27T22:45:46.317Z,15.07
2023-10-27T22:48:13.078Z,12.55
2023-10-27T22:50:39.772Z,15.25
2023-10-27T22:53:06.616Z,21.52
2023-10-27T22:55:33.457Z,19.77
2023-10-27T22:58:00.104Z,12.45
2023-10-27T23:00:27.272Z,13.57
2023-10-27T23:02:57.683Z,18.10
2023-10-27T23:05:26.124Z,12.63
2023-10-27T23:07:54.627Z,19.03
2023-10-27T23:10:21.406Z,16.13
2023-10-27T23:12:49.063Z,16.63
2023-10-27T23:15:16.188Z,17.83
2023-10-27T23:17:43.295Z,22.92
2023-10-27T23:20:13.523Z,23.33
2023-10-27T23:22:40.516Z,15.63
2023-10-27T23:25:09.472Z,16.02
2023-10-27T23:27:36.998Z,15.23
2023-10-27T23:30:07.409Z,24.55
2023-10-27T23:32:34.079Z,15.43
2023-10-27T23:35:00.917Z,18.35
2023-10-27T23:37:28.477Z,18.98
2023-10-27T23:39:55.614Z,18.30
2023-10-27T23:42:22.323Z,24.33
2023-10-27T23:44:49.032Z,20.47
2023-10-27T23:47:16.561Z,16.60
2023-10-27T23:49:43.421Z,19.20
2023-10-27T23:52:10.233Z,19.27
2023-10-27T23:54:40.073Z,17.67
2023-10-27T23:57:06.709Z,21.00
2023-10-27T23:59:35.892Z,21.55
